createdAt,value
2023-04-27T00:03:06.286Z,5.24
2023-04-27T00:08:08.858Z,5.20
2023-04-27T00:13:10.599Z,5.08
2023-04-27T00:18:12.427Z,5.09
2023-04-27T00:23:14.246Z,5.15
2023-04-27T00:28:16.066Z,5.15
2023-04-27T00:33:18.288Z,5.09
2023-04-27T00:38:20.441Z,5.10
2023-04-27T00:43:22.183Z,5.12
2023-04-27T00:48:24.619Z,5.13
2023-04-27T00:53:27.137Z,5.12
2023-04-27T00:58:28.906Z,5.08
2023-04-27T01:03:30.880Z,4.98
2023-04-27T01:08:32.827Z,4.95
2023-04-27T01:13:36.933Z,4.91
2023-04-27T01:18:40.759Z,4.85
2023-04-27T01:23:42.624Z,4.87
2023-04-27T01:28:46.410Z,4.88
2023-04-27T01:33:48.210Z,4.88
2023-04-27T01:38:50.000Z,4.79
2023-04-27T01:43:51.742Z,4.86
2023-04-27T01:48:53.498Z,4.80
2023-04-27T01:53:55.256Z,4.83
2023-04-27T01:58:57.006Z,4.73
2023-04-27T02:03:59.678Z,4.73
2023-04-27T02:09:01.724Z,4.65
2023-04-27T02:14:03.705Z,4.65
2023-04-27T02:19:08.410Z,4.66
2023-04-27T02:24:10.296Z,4.65
2023-04-27T02:29:12.239Z,4.65
2023-04-27T02:34:14.445Z,4.73
2023-04-27T02:39:16.626Z,4.78
2023-04-27T02:44:18.419Z,4.73
2023-04-27T02:49:20.175Z,4.74
2023-04-27T02:54:21.903Z,4.78
2023-04-27T02:59:23.802Z,4.68
2023-04-27T03:04:25.663Z,4.55
2023-04-27T03:09:27.665Z,4.46
2023-04-27T03:14:29.405Z,4.39
2023-04-27T03:19:32.628Z,4.32
2023-04-27T03:24:34.432Z,4.16
2023-04-27T03:29:36.273Z,4.09
2023-04-27T03:34:40.202Z,4.07
2023-04-27T03:39:42.165Z,4.03
2023-04-27T03:44:44.882Z,4.01
2023-04-27T03:49:46.746Z,3.96
2023-04-27T03:54:48.636Z,3.98
2023-04-27T03:59:50.700Z,3.98
2023-04-27T04:04:52.618Z,3.91
2023-04-27T04:09:54.486Z,3.85
2023-04-27T04:14:56.667Z,3.79
2023-04-27T04:19:58.575Z,3.77
2023-04-27T04:25:00.687Z,3.75
2023-04-27T04:30:06.442Z,3.77
2023-04-27T04:35:10.006Z,3.91
2023-04-27T04:40:12.799Z,4.13
2023-04-27T04:45:15.453Z,4.39
2023-04-27T04:50:17.480Z,5.57
2023-04-27T04:55:19.416Z,6.00
2023-04-27T05:00:22.563Z,6.18
2023-04-27T05:05:24.653Z,6.56
2023-04-27T05:10:26.471Z,6.05
2023-04-27T05:15:28.229Z,5.89
2023-04-27T05:20:29.994Z,5.78
2023-04-27T05:25:36.017Z,5.54
2023-04-27T05:30:38.146Z,5.79
2023-04-27T05:35:39.917Z,6.03
2023-04-27T05:40:41.688Z,6.12
2023-04-27T05:45:43.445Z,6.31
2023-04-27T05:50:45.488Z,6.40
2023-04-27T05:55:47.257Z,6.61
2023-04-27T06:00:48.973Z,6.92
2023-04-27T06:05:58.903Z,7.14
2023-04-27T06:11:01.090Z,7.41
2023-04-27T06:16:02.986Z,7.56
2023-04-27T06:21:04.847Z,7.88
2023-04-27T06:26:06.695Z,8.39
2023-04-27T06:31:08.964Z,8.73
2023-04-27T06:36:11.777Z,9.03
2023-04-27T06:41:14.041Z,9.20
2023-04-27T06:46:15.950Z,9.33
2023-04-27T06:51:17.871Z,9.48
2023-04-27T06:56:19.931Z,9.17
2023-04-27T07:01:22.068Z,8.94
2023-04-27T07:06:25.774Z,9.15
2023-04-27T07:11:28.940Z,9.07
2023-04-27T07:16:31.906Z,9.06
2023-04-27T07:21:34.110Z,9.04
2023-04-27T07:26:39.518Z,8.88
2023-04-27T07:31:41.976Z,9.02
2023-04-27T07:36:45.529Z,10.31
2023-04-27T07:41:48.829Z,11.48
2023-04-27T07:46:54.104Z,12.19
2023-04-27T07:51:56.809Z,12.32
2023-04-27T07:56:59.347Z,12.58
2023-04-27T08:02:18.596Z,13.38
2023-04-27T08:07:22.231Z,13.88
2023-04-27T08:12:24.910Z,13.82
2023-04-27T08:17:27.180Z,13.92
2023-04-27T08:22:30.133Z,13.96
2023-04-27T08:27:32.079Z,14.71
2023-04-27T08:32:33.889Z,13.84
2023-04-27T08:37:35.934Z,14.23
2023-04-27T08:42:38.804Z,14.22
2023-04-27T08:47:43.813Z,14.87
2023-04-27T08:52:47.370Z,14.94
2023-04-27T08:57:56.566Z,15.28
2023-04-27T09:02:58.418Z,14.96
2023-04-27T09:08:05.250Z,15.06
2023-04-27T09:13:07.167Z,15.39
2023-04-27T09:18:22.076Z,15.86
2023-04-27T09:23:31.608Z,15.49
2023-04-27T09:28:34.239Z,15.36
2023-04-27T09:33:36.389Z,15.47
2023-04-27T09:38:38.602Z,15.33
2023-04-27T09:43:48.177Z,15.44
2023-04-27T09:48:51.786Z,15.52
2023-04-27T09:53:58.327Z,15.49
2023-04-27T09:59:27.984Z,15.92
2023-04-27T10:04:57.704Z,16.30
2023-04-27T10:10:02.508Z,16.13
2023-04-27T10:15:13.509Z,16.10
2023-04-27T10:20:15.618Z,15.87
2023-04-27T10:25:25.666Z,15.63
2023-04-27T10:30:32.242Z,15.35
2023-04-27T10:35:43.252Z,15.82
2023-04-27T10:40:54.616Z,15.74
2023-04-27T10:46:12.214Z,15.84
2023-04-27T10:51:20.074Z,15.82
2023-04-27T10:56:24.378Z,15.85
2023-04-27T11:01:29.390Z,15.62
2023-04-27T11:06:34.978Z,15.65
2023-04-27T11:11:37.568Z,15.71
2023-04-27T11:16:46.661Z,15.98
2023-04-27T11:21:48.812Z,16.17
2023-04-27T11:26:53.731Z,16.28
2023-04-27T11:31:55.889Z,16.35
2023-04-27T11:37:14.304Z,16.33
2023-04-27T11:42:23.543Z,16.44
2023-04-27T11:47:27.834Z,17.04
2023-04-27T11:52:33.824Z,17.26
2023-04-27T11:57:36.610Z,17.06
2023-04-27T12:02:39.011Z,16.93
2023-04-27T12:07:41.443Z,16.80
2023-04-27T12:12:43.200Z,16.94
2023-04-27T12:17:44.984Z,16.69
2023-04-27T12:22:46.802Z,16.84
2023-04-27T12:27:49.106Z,16.75
2023-04-27T12:32:51.380Z,16.53
2023-04-27T12:37:53.164Z,16.42
2023-04-27T12:42:55.032Z,16.68
2023-04-27T12:48:03.261Z,16.98
2023-04-27T12:53:05.859Z,17.20
2023-04-27T12:58:07.757Z,17.07
2023-04-27T13:03:09.752Z,16.84
2023-04-27T13:08:12.006Z,16.77
2023-04-27T13:13:13.791Z,16.54
2023-04-27T13:18:15.712Z,16.54
2023-04-27T13:23:17.800Z,16.21
2023-04-27T13:28:19.812Z,16.39
2023-04-27T13:33:23.654Z,16.38
2023-04-27T13:38:25.715Z,16.68
2023-04-27T13:43:27.466Z,17.32
2023-04-27T13:48:30.482Z,17.36
2023-04-27T13:53:32.248Z,17.70
2023-04-27T13:58:34.193Z,17.53
2023-04-27T14:03:36.218Z,17.37
2023-04-27T14:08:38.040Z,17.38
2023-04-27T14:13:39.810Z,17.47
2023-04-27T14:18:42.188Z,17.92
2023-04-27T14:23:43.987Z,17.94
2023-04-27T14:28:46.176Z,17.99
2023-04-27T14:33:48.128Z,18.03
2023-04-27T14:38:49.931Z,18.30
2023-04-27T14:43:51.809Z,18.21
2023-04-27T14:48:53.538Z,18.09
2023-04-27T14:53:55.976Z,17.87
2023-04-27T14:58:57.891Z,18.36
2023-04-27T15:03:59.867Z,18.30
2023-04-27T15:09:01.844Z,18.51
2023-04-27T15:14:03.587Z,18.71
2023-04-27T15:19:05.439Z,18.14
2023-04-27T15:24:07.216Z,18.48
2023-04-27T15:29:08.951Z,18.20
2023-04-27T15:34:10.693Z,17.71
2023-04-27T15:39:12.630Z,17.54
2023-04-27T15:44:14.509Z,17.40
2023-04-27T15:49:16.667Z,17.71
2023-04-27T15:54:18.569Z,17.79
2023-04-27T15:59:20.359Z,17.85
2023-04-27T16:04:22.290Z,17.80
2023-04-27T16:09:24.129Z,17.62
2023-04-27T16:14:26.159Z,17.58
2023-04-27T16:19:27.892Z,17.44
2023-04-27T16:24:31.290Z,17.39
2023-04-27T16:29:33.661Z,17.21
2023-04-27T16:34:37.217Z,17.21
2023-04-27T16:39:39.170Z,17.15
2023-04-27T16:44:40.992Z,17.08
2023-04-27T16:49:44.268Z,17.07
2023-04-27T16:54:46.213Z,16.93
2023-04-27T16:59:48.092Z,16.94
2023-04-27T17:04:51.851Z,17.05
2023-04-27T17:09:56.152Z,17.02
2023-04-27T17:14:58.084Z,16.88
2023-04-27T17:20:00.352Z,16.68
2023-04-27T17:25:02.395Z,16.56
2023-04-27T17:30:05.229Z,16.44
2023-04-27T17:35:07.399Z,16.34
2023-04-27T17:40:11.114Z,16.28
2023-04-27T17:45:13.050Z,16.21
2023-04-27T17:50:14.957Z,16.20
2023-04-27T17:55:17.709Z,16.11
2023-04-27T18:00:19.896Z,16.07
2023-04-27T18:05:21.793Z,15.93
2023-04-27T18:10:23.568Z,15.74
2023-04-27T18:15:25.547Z,15.56
2023-04-27T18:20:28.042Z,15.38
2023-04-27T18:25:29.924Z,15.20
2023-04-27T18:30:31.787Z,15.05
2023-04-27T18:35:34.163Z,15.00
2023-04-27T18:40:36.860Z,15.03
2023-04-27T18:45:38.635Z,15.00
2023-04-27T18:50:40.429Z,14.97
2023-04-27T18:55:42.212Z,14.89
2023-04-27T19:00:43.971Z,14.71
2023-04-27T19:05:46.082Z,14.52
2023-04-27T19:10:50.435Z,14.22
2023-04-27T19:15:52.195Z,14.20
2023-04-27T19:20:54.087Z,14.18
2023-04-27T19:26:00.100Z,14.06
2023-04-27T19:31:08.053Z,13.85
2023-04-27T19:36:09.850Z,13.76
2023-04-27T19:41:14.078Z,13.59
2023-04-27T19:46:15.928Z,13.54
2023-04-27T19:51:17.665Z,13.50
2023-04-27T19:56:19.429Z,13.35
2023-04-27T20:01:22.035Z,13.11
2023-04-27T20:06:23.806Z,13.05
2023-04-27T20:11:25.572Z,13.06
2023-04-27T20:16:27.412Z,12.93
2023-04-27T20:21:30.951Z,12.83
2023-04-27T20:26:32.898Z,12.77
2023-04-27T20:31:34.792Z,12.76
2023-04-27T20:36:36.564Z,12.81
2023-04-27T20:41:42.532Z,12.88
2023-04-27T20:46:44.847Z,12.84
2023-04-27T20:51:46.886Z,12.94
2023-04-27T20:56:48.691Z,13.03
2023-04-27T21:01:50.419Z,13.07
2023-04-27T21:06:52.885Z,13.07
2023-04-27T21:11:54.720Z,13.10
2023-04-27T21:16:56.647Z,13.09
2023-04-27T21:21:58.465Z,13.01
2023-04-27T21:27:00.327Z,12.94
2023-04-27T21:32:02.357Z,12.82
2023-04-27T21:37:04.175Z,12.62
2023-04-27T21:42:06.116Z,12.63
2023-04-27T21:47:07.916Z,12.64
2023-04-27T21:52:10.559Z,12.46
2023-04-27T21:57:12.296Z,12.49
2023-04-27T22:02:14.062Z,12.45
2023-04-27T22:07:15.819Z,12.23
2023-04-27T22:12:17.660Z,12.25
2023-04-27T22:17:19.440Z,12.29
2023-04-27T22:22:21.311Z,12.41
2023-04-27T22:27:23.643Z,12.46
2023-04-27T22:32:27.976Z,12.44
2023-04-27T22:37:29.844Z,12.50
2023-04-27T22:42:31.683Z,12.54
2023-04-27T22:47:33.524Z,12.55
2023-04-27T22:52:37.233Z,12.38
2023-04-27T22:57:39.626Z,12.21
2023-04-27T23:02:42.001Z,12.27
2023-04-27T23:07:43.993Z,12.42
2023-04-27T23:12:45.780Z,12.49
2023-04-27T23:17:47.522Z,12.50
2023-04-27T23:22:49.977Z,12.27
2023-04-27T23:27:52.782Z,12.16
2023-04-27T23:32:54.838Z,12.18
2023-04-27T23:37:56.583Z,12.31
2023-04-27T23:42:58.484Z,12.27
2023-04-27T23:48:00.451Z,12.16
2023-04-27T23:53:03.429Z,12.18
2023-04-27T23:58:05.254Z,12.18
